Terminal Aerodrome Forecast
Issued by NWS Corpus Christi, TX

Home | Current Version | Previous Version | Text Only | Print | Product List | Glossary On
Versions: 1 2 3 4 5 6 7 8 9 10 11 12 13 14 15 16 17 18 19
400
FTUS44 KCRP 240536
TAFCRP
TAF
KCRP 240536Z 2406/2506 13010KT P6SM SCT015 OVC250
      TEMPO 2406/2409 BKN015 OVC250
     FM240900 14006KT P6SM SCT009 BKN015
      TEMPO 2410/2413 BKN009 OVC015
     FM241400 15010KT P6SM SCT015 BKN025
     FM242000 13018G25KT P6SM SCT025 BKN050
     FM250100 12014KT P6SM SCT020 BKN200
     FM250400 13010KT P6SM BKN015=

USA.gov is the U.S. government's official web portal to all federal, state and local government web resources and services.